sensor_id;sensor_type;location;lat;lon;timestamp;pressure;altitude;pressure_sealevel;temperature;humidity
12987;BME280;58897;51.960;5.582;2022-08-11T00:02:11;101935.75;;;20.88;52.53
12987;BME280;58897;51.960;5.582;2022-08-11T00:04:41;101936.19;;;20.85;52.98
12987;BME280;58897;51.960;5.582;2022-08-11T00:07:08;101936.53;;;20.69;53.20
12987;BME280;58897;51.960;5.582;2022-08-11T00:09:36;101934.19;;;20.73;53.25
12987;BME280;58897;51.960;5.582;2022-08-11T00:12:11;101934.19;;;20.73;53.28
12987;BME280;58897;51.960;5.582;2022-08-11T00:14:40;101928.53;;;20.74;53.50
12987;BME280;58897;51.960;5.582;2022-08-11T00:17:08;101929.97;;;20.70;53.72
12987;BME280;58897;51.960;5.582;2022-08-11T00:19:44;101936.94;;;20.73;53.64
12987;BME280;58897;51.960;5.582;2022-08-11T00:22:32;101936.06;;;20.59;53.47
12987;BME280;58897;51.960;5.582;2022-08-11T00:25:07;101926.34;;;20.63;53.87
12987;BME280;58897;51.960;5.582;2022-08-11T00:27:36;101932.22;;;20.54;53.82
12987;BME280;58897;51.960;5.582;2022-08-11T00:30:04;101927.75;;;20.53;54.11
12987;BME280;58897;51.960;5.582;2022-08-11T00:32:32;101934.97;;;20.54;54.01
12987;BME280;58897;51.960;5.582;2022-08-11T00:34:59;101936.63;;;20.55;53.99
12987;BME280;58897;51.960;5.582;2022-08-11T00:37:48;101935.13;;;20.52;53.70
12987;BME280;58897;51.960;5.582;2022-08-11T00:40:41;101934.31;;;20.52;54.25
12987;BME280;58897;51.960;5.582;2022-08-11T00:43:23;101934.25;;;20.45;54.38
12987;BME280;58897;51.960;5.582;2022-08-11T00:46:13;101937.47;;;20.49;54.61
12987;BME280;58897;51.960;5.582;2022-08-11T00:48:56;101938.25;;;20.43;54.80
12987;BME280;58897;51.960;5.582;2022-08-11T00:51:42;101950.44;;;20.33;54.69
12987;BME280;58897;51.960;5.582;2022-08-11T01:00:14;101948.50;;;20.27;55.43
12987;BME280;58897;51.960;5.582;2022-08-11T01:08:29;101942.03;;;20.14;55.97
12987;BME280;58897;51.960;5.582;2022-08-11T01:20:13;101942.56;;;20.03;56.08
12987;BME280;58897;51.960;5.582;2022-08-11T01:29:32;101931.56;;;19.96;57.00
12987;BME280;58897;51.960;5.582;2022-08-11T01:41:19;101931.75;;;19.95;57.56
12987;BME280;58897;51.960;5.582;2022-08-11T01:44:11;101928.34;;;19.93;57.65
12987;BME280;58897;51.960;5.582;2022-08-11T01:47:35;101934.69;;;19.93;57.57
12987;BME280;58897;51.960;5.582;2022-08-11T01:50:22;101935.69;;;19.86;58.02
12987;BME280;58897;51.960;5.582;2022-08-11T01:55:33;101934.84;;;19.85;58.18
12987;BME280;58897;51.960;5.582;2022-08-11T02:07:12;101934.06;;;19.70;58.43
12987;BME280;58897;51.960;5.582;2022-08-11T02:13:14;101932.47;;;19.82;58.67
12987;BME280;58897;51.960;5.582;2022-08-11T02:15:54;101936.84;;;19.77;58.50
12987;BME280;58897;51.960;5.582;2022-08-11T02:18:33;101933.22;;;19.69;59.20
12987;BME280;58897;51.960;5.582;2022-08-11T02:21:26;101931.84;;;19.80;58.85
12987;BME280;58897;51.960;5.582;2022-08-11T02:24:20;101919.97;;;19.73;59.14
12987;BME280;58897;51.960;5.582;2022-08-11T02:27:17;101921.22;;;19.70;59.32
12987;BME280;58897;51.960;5.582;2022-08-11T02:29:48;101925.88;;;19.77;59.10
12987;BME280;58897;51.960;5.582;2022-08-11T02:32:30;101922.03;;;19.71;59.40
12987;BME280;58897;51.960;5.582;2022-08-11T02:35:25;101925.84;;;19.70;59.65
12987;BME280;58897;51.960;5.582;2022-08-11T02:38:15;101920.16;;;19.71;59.72
12987;BME280;58897;51.960;5.582;2022-08-11T02:41:04;101920.56;;;19.47;60.23
12987;BME280;58897;51.960;5.582;2022-08-11T02:44:09;101925.91;;;19.55;60.26
12987;BME280;58897;51.960;5.582;2022-08-11T02:47:16;101926.06;;;19.47;60.53
12987;BME280;58897;51.960;5.582;2022-08-11T02:50:04;101926.84;;;19.62;60.24
12987;BME280;58897;51.960;5.582;2022-08-11T02:52:57;101923.09;;;19.49;60.68
12987;BME280;58897;51.960;5.582;2022-08-11T02:55:37;101921.88;;;19.51;60.61
12987;BME280;58897;51.960;5.582;2022-08-11T03:01:06;101922.72;;;19.52;61.08
12987;BME280;58897;51.960;5.582;2022-08-11T03:03:49;101919.50;;;19.48;60.86
12987;BME280;58897;51.960;5.582;2022-08-11T03:06:26;101916.50;;;19.43;61.13
12987;BME280;58897;51.960;5.582;2022-08-11T03:14:50;101915.88;;;19.27;62.42
12987;BME280;58897;51.960;5.582;2022-08-11T03:20:27;101924.09;;;19.27;62.04
12987;BME280;58897;51.960;5.582;2022-08-11T03:26:01;101916.81;;;19.34;62.17
12987;BME280;58897;51.960;5.582;2022-08-11T03:31:25;101917.31;;;19.23;62.91
12987;BME280;58897;51.960;5.582;2022-08-11T03:33:58;101915.75;;;19.14;63.37
12987;BME280;58897;51.960;5.582;2022-08-11T03:39:53;101910.34;;;19.20;63.49
12987;BME280;58897;51.960;5.582;2022-08-11T03:42:47;101919.53;;;19.13;63.86
12987;BME280;58897;51.960;5.582;2022-08-11T03:45:45;101916.03;;;19.19;63.86
12987;BME280;58897;51.960;5.582;2022-08-11T03:51:30;101917.75;;;19.05;64.01
12987;BME280;58897;51.960;5.582;2022-08-11T03:54:49;101921.72;;;19.02;64.70
12987;BME280;58897;51.960;5.582;2022-08-11T04:00:13;101919.84;;;19.03;64.67
12987;BME280;58897;51.960;5.582;2022-08-11T04:02:56;101919.63;;;19.04;64.73
12987;BME280;58897;51.960;5.582;2022-08-11T04:17:27;101911.34;;;18.98;65.77
12987;BME280;58897;51.960;5.582;2022-08-11T04:20:17;101909.66;;;18.97;64.64
12987;BME280;58897;51.960;5.582;2022-08-11T04:22:59;101903.25;;;18.90;65.29
12987;BME280;58897;51.960;5.582;2022-08-11T04:35:15;101901.44;;;18.82;65.75
12987;BME280;58897;51.960;5.582;2022-08-11T04:46:56;101892.47;;;18.88;66.04
12987;BME280;58897;51.960;5.582;2022-08-11T04:53:05;101896.75;;;18.76;66.45
12987;BME280;58897;51.960;5.582;2022-08-11T04:56:09;101892.69;;;18.72;67.05
12987;BME280;58897;51.960;5.582;2022-08-11T04:59:52;101896.94;;;18.75;66.81
12987;BME280;58897;51.960;5.582;2022-08-11T05:02:54;101895.69;;;18.77;66.63
12987;BME280;58897;51.960;5.582;2022-08-11T05:17:03;101895.59;;;18.85;66.87
12987;BME280;58897;51.960;5.582;2022-08-11T05:19:51;101898.53;;;18.84;66.96
12987;BME280;58897;51.960;5.582;2022-08-11T05:22:37;101903.53;;;18.80;67.63
12987;BME280;58897;51.960;5.582;2022-08-11T05:25:31;101907.31;;;18.65;68.08
12987;BME280;58897;51.960;5.582;2022-08-11T05:28:50;101897.50;;;18.70;67.94
12987;BME280;58897;51.960;5.582;2022-08-11T05:31:54;101906.66;;;18.77;67.93
12987;BME280;58897;51.960;5.582;2022-08-11T05:34:46;101907.50;;;18.78;68.16
12987;BME280;58897;51.960;5.582;2022-08-11T05:39:58;101912.69;;;18.87;67.47
12987;BME280;58897;51.960;5.582;2022-08-11T05:42:49;101915.59;;;18.86;68.08
12987;BME280;58897;51.960;5.582;2022-08-11T05:45:35;101918.63;;;18.91;68.44
12987;BME280;58897;51.960;5.582;2022-08-11T05:48:34;101914.47;;;18.95;68.51
12987;BME280;58897;51.960;5.582;2022-08-11T05:51:20;101915.22;;;18.89;69.53
12987;BME280;58897;51.960;5.582;2022-08-11T05:54:20;101918.72;;;18.97;69.23
12987;BME280;58897;51.960;5.582;2022-08-11T05:57:07;101924.25;;;19.04;69.46
12987;BME280;58897;51.960;5.582;2022-08-11T05:59:35;101920.94;;;19.08;69.50
12987;BME280;58897;51.960;5.582;2022-08-11T06:02:04;101925.84;;;19.13;69.38
12987;BME280;58897;51.960;5.582;2022-08-11T06:04:32;101927.00;;;19.04;69.96
12987;BME280;58897;51.960;5.582;2022-08-11T06:07:01;101917.16;;;19.09;69.41
12987;BME280;58897;51.960;5.582;2022-08-11T06:09:32;101928.78;;;19.11;69.03
12987;BME280;58897;51.960;5.582;2022-08-11T06:14:29;101915.75;;;19.35;68.89
12987;BME280;58897;51.960;5.582;2022-08-11T06:16:59;101914.72;;;19.36;68.70
12987;BME280;58897;51.960;5.582;2022-08-11T06:19:35;101913.13;;;19.41;68.21
12987;BME280;58897;51.960;5.582;2022-08-11T06:22:04;101916.38;;;19.51;67.58
12987;BME280;58897;51.960;5.582;2022-08-11T06:24:33;101912.16;;;19.49;67.68
12987;BME280;58897;51.960;5.582;2022-08-11T06:27:02;101929.88;;;19.53;67.68
12987;BME280;58897;51.960;5.582;2022-08-11T06:29:45;101926.56;;;19.57;67.79
12987;BME280;58897;51.960;5.582;2022-08-11T06:32:26;101925.78;;;19.63;67.34
12987;BME280;58897;51.960;5.582;2022-08-11T06:40:45;101926.97;;;20.03;67.18
12987;BME280;58897;51.960;5.582;2022-08-11T06:43:46;101918.81;;;20.38;64.66
12987;BME280;58897;51.960;5.582;2022-08-11T06:46:33;101915.84;;;20.73;61.98
12987;BME280;58897;51.960;5.582;2022-08-11T06:49:33;101920.53;;;21.33;60.93
12987;BME280;58897;51.960;5.582;2022-08-11T06:52:28;101921.84;;;21.70;58.61
12987;BME280;58897;51.960;5.582;2022-08-11T06:55:23;101920.00;;;22.10;59.07
12987;BME280;58897;51.960;5.582;2022-08-11T06:58:27;101918.16;;;22.81;56.39
12987;BME280;58897;51.960;5.582;2022-08-11T07:10:32;101918.88;;;24.02;52.69
12987;BME280;58897;51.960;5.582;2022-08-11T07:13:26;101927.31;;;24.13;51.54
12987;BME280;58897;51.960;5.582;2022-08-11T07:16:18;101913.31;;;24.51;52.19
12987;BME280;58897;51.960;5.582;2022-08-11T07:18:55;101912.53;;;24.87;50.63
12987;BME280;58897;51.960;5.582;2022-08-11T07:21:45;101907.72;;;25.12;50.14
12987;BME280;58897;51.960;5.582;2022-08-11T07:24:35;101909.88;;;25.40;48.62
12987;BME280;58897;51.960;5.582;2022-08-11T07:27:33;101912.25;;;25.54;49.38
12987;BME280;58897;51.960;5.582;2022-08-11T07:30:21;101917.78;;;25.66;49.54
12987;BME280;58897;51.960;5.582;2022-08-11T07:32:55;101911.34;;;25.84;45.72
12987;BME280;58897;51.960;5.582;2022-08-11T07:35:32;101916.09;;;26.18;46.72
12987;BME280;58897;51.960;5.582;2022-08-11T07:38:07;101909.94;;;26.51;45.34
12987;BME280;58897;51.960;5.582;2022-08-11T07:40:37;101916.03;;;26.76;45.23
12987;BME280;58897;51.960;5.582;2022-08-11T07:43:04;101919.22;;;26.79;43.66
12987;BME280;58897;51.960;5.582;2022-08-11T07:45:32;101915.97;;;27.11;43.53
12987;BME280;58897;51.960;5.582;2022-08-11T07:48:18;101908.41;;;27.06;42.74
12987;BME280;58897;51.960;5.582;2022-08-11T07:51:04;101909.38;;;27.00;43.20
12987;BME280;58897;51.960;5.582;2022-08-11T07:53:50;101907.06;;;27.37;41.30
12987;BME280;58897;51.960;5.582;2022-08-11T07:56:34;101906.63;;;27.56;42.13
12987;BME280;58897;51.960;5.582;2022-08-11T07:59:21;101905.94;;;27.49;41.80
12987;BME280;58897;51.960;5.582;2022-08-11T08:02:26;101911.41;;;27.61;41.75
12987;BME280;58897;51.960;5.582;2022-08-11T08:05:13;101911.63;;;27.71;42.99
12987;BME280;58897;51.960;5.582;2022-08-11T08:08:00;101906.41;;;28.08;39.00
12987;BME280;58897;51.960;5.582;2022-08-11T08:10:46;101906.13;;;28.43;38.82
12987;BME280;58897;51.960;5.582;2022-08-11T08:13:32;101911.94;;;28.41;40.13
12987;BME280;58897;51.960;5.582;2022-08-11T08:16:19;101909.53;;;28.50;38.49
12987;BME280;58897;51.960;5.582;2022-08-11T08:19:04;101901.84;;;28.95;37.33
12987;BME280;58897;51.960;5.582;2022-08-11T08:21:31;101907.22;;;28.80;36.23
12987;BME280;58897;51.960;5.582;2022-08-11T08:23:59;101902.94;;;28.94;36.85
12987;BME280;58897;51.960;5.582;2022-08-11T08:26:26;101900.94;;;28.90;38.35
12987;BME280;58897;51.960;5.582;2022-08-11T08:29:18;101904.09;;;29.20;39.45
12987;BME280;58897;51.960;5.582;2022-08-11T08:32:06;101902.34;;;29.35;36.11
12987;BME280;58897;51.960;5.582;2022-08-11T08:34:34;101902.19;;;29.47;35.58
12987;BME280;58897;51.960;5.582;2022-08-11T08:37:02;101906.56;;;29.70;35.73
12987;BME280;58897;51.960;5.582;2022-08-11T08:39:51;101910.41;;;29.64;37.37
12987;BME280;58897;51.960;5.582;2022-08-11T08:42:29;101901.22;;;29.90;35.28
12987;BME280;58897;51.960;5.582;2022-08-11T08:45:03;101899.81;;;30.24;34.96
12987;BME280;58897;51.960;5.582;2022-08-11T08:47:34;101901.03;;;29.75;32.47
12987;BME280;58897;51.960;5.582;2022-08-11T08:50:11;101899.94;;;30.39;34.24
12987;BME280;58897;51.960;5.582;2022-08-11T08:52:51;101912.88;;;30.61;33.06
12987;BME280;58897;51.960;5.582;2022-08-11T08:55:19;101899.13;;;31.01;32.53
12987;BME280;58897;51.960;5.582;2022-08-11T08:57:48;101896.66;;;31.09;31.35
12987;BME280;58897;51.960;5.582;2022-08-11T09:00:16;101894.25;;;31.53;31.88
12987;BME280;58897;51.960;5.582;2022-08-11T09:02:49;101893.06;;;31.29;30.47
12987;BME280;58897;51.960;5.582;2022-08-11T09:05:18;101898.75;;;31.64;30.89
12987;BME280;58897;51.960;5.582;2022-08-11T09:07:46;101897.06;;;31.53;29.80
12987;BME280;58897;51.960;5.582;2022-08-11T09:10:18;101895.41;;;31.83;30.25
12987;BME280;58897;51.960;5.582;2022-08-11T09:12:45;101889.81;;;31.88;30.46
12987;BME280;58897;51.960;5.582;2022-08-11T09:15:13;101888.97;;;32.22;31.34
12987;BME280;58897;51.960;5.582;2022-08-11T09:17:47;101894.56;;;32.07;30.11
12987;BME280;58897;51.960;5.582;2022-08-11T09:20:20;101890.56;;;32.44;28.71
12987;BME280;58897;51.960;5.582;2022-08-11T09:22:48;101888.97;;;32.22;28.88
12987;BME280;58897;51.960;5.582;2022-08-11T09:25:58;101881.13;;;32.24;28.13
12987;BME280;58897;51.960;5.582;2022-08-11T09:28:45;101885.00;;;32.59;27.85
12987;BME280;58897;51.960;5.582;2022-08-11T09:31:13;101885.81;;;32.44;28.59
12987;BME280;58897;51.960;5.582;2022-08-11T09:33:42;101885.06;;;33.03;29.27
12987;BME280;58897;51.960;5.582;2022-08-11T09:36:11;101877.88;;;33.35;27.91
12987;BME280;58897;51.960;5.582;2022-08-11T09:38:57;101872.41;;;33.20;26.69
12987;BME280;58897;51.960;5.582;2022-08-11T09:41:44;101878.09;;;33.05;26.86
12987;BME280;58897;51.960;5.582;2022-08-11T09:44:30;101868.91;;;33.38;27.28
12987;BME280;58897;51.960;5.582;2022-08-11T09:47:27;101867.03;;;33.29;26.51
12987;BME280;58897;51.960;5.582;2022-08-11T09:49:57;101867.69;;;33.54;26.02
12987;BME280;58897;51.960;5.582;2022-08-11T09:52:40;101860.44;;;33.48;26.50
12987;BME280;58897;51.960;5.582;2022-08-11T09:55:27;101863.31;;;33.77;25.73
12987;BME280;58897;51.960;5.582;2022-08-11T09:57:55;101861.28;;;34.17;25.41
12987;BME280;58897;51.960;5.582;2022-08-11T10:01:01;101866.13;;;34.35;25.04
12987;BME280;58897;51.960;5.582;2022-08-11T10:03:30;101856.28;;;33.80;25.26
12987;BME280;58897;51.960;5.582;2022-08-11T10:05:59;101863.13;;;33.97;25.12
12987;BME280;58897;51.960;5.582;2022-08-11T10:08:58;101859.50;;;34.26;24.30
12987;BME280;58897;51.960;5.582;2022-08-11T10:11:26;101859.09;;;33.80;25.03
12987;BME280;58897;51.960;5.582;2022-08-11T10:13:54;101861.03;;;34.13;25.00
12987;BME280;58897;51.960;5.582;2022-08-11T10:17:05;101855.66;;;34.17;23.90
12987;BME280;58897;51.960;5.582;2022-08-11T10:19:34;101856.03;;;34.62;23.53
12987;BME280;58897;51.960;5.582;2022-08-11T10:22:04;101851.16;;;34.68;22.92
12987;BME280;58897;51.960;5.582;2022-08-11T10:24:55;101858.19;;;34.89;23.64
12987;BME280;58897;51.960;5.582;2022-08-11T10:27:45;101846.50;;;34.82;22.99
12987;BME280;58897;51.960;5.582;2022-08-11T10:30:37;101854.06;;;34.34;23.38
12987;BME280;58897;51.960;5.582;2022-08-11T10:33:24;101850.84;;;34.46;22.95
12987;BME280;58897;51.960;5.582;2022-08-11T10:36:27;101849.41;;;34.25;23.63
12987;BME280;58897;51.960;5.582;2022-08-11T10:38:56;101841.63;;;33.88;22.79
12987;BME280;58897;51.960;5.582;2022-08-11T10:41:24;101845.38;;;34.36;23.23
12987;BME280;58897;51.960;5.582;2022-08-11T10:44:38;101846.81;;;34.99;22.58
12987;BME280;58897;51.960;5.582;2022-08-11T10:47:06;101844.22;;;34.37;22.02
12987;BME280;58897;51.960;5.582;2022-08-11T10:49:52;101847.16;;;34.50;23.29
12987;BME280;58897;51.960;5.582;2022-08-11T10:52:38;101838.91;;;34.11;22.63
12987;BME280;58897;51.960;5.582;2022-08-11T10:55:24;101837.19;;;34.39;24.46
12987;BME280;58897;51.960;5.582;2022-08-11T10:58:10;101832.66;;;34.20;23.89
12987;BME280;58897;51.960;5.582;2022-08-11T11:00:58;101832.47;;;34.35;25.04
12987;BME280;58897;51.960;5.582;2022-08-11T11:03:28;101829.34;;;33.84;24.48
12987;BME280;58897;51.960;5.582;2022-08-11T11:06:05;101826.84;;;34.82;23.64
12987;BME280;58897;51.960;5.582;2022-08-11T11:08:57;101830.28;;;34.55;23.58
12987;BME280;58897;51.960;5.582;2022-08-11T11:11:34;101822.00;;;34.88;23.32
12987;BME280;58897;51.960;5.582;2022-08-11T11:14:21;101821.31;;;34.77;23.28
12987;BME280;58897;51.960;5.582;2022-08-11T11:17:22;101825.06;;;33.91;23.51
12987;BME280;58897;51.960;5.582;2022-08-11T11:19:56;101820.84;;;33.65;24.06
12987;BME280;58897;51.960;5.582;2022-08-11T11:22:24;101819.09;;;34.74;23.40
12987;BME280;58897;51.960;5.582;2022-08-11T11:30:42;101818.53;;;33.72;23.85
12987;BME280;58897;51.960;5.582;2022-08-11T11:33:24;101818.44;;;34.35;23.50
12987;BME280;58897;51.960;5.582;2022-08-11T11:36:01;101815.63;;;34.11;22.94
12987;BME280;58897;51.960;5.582;2022-08-11T11:38:34;101815.50;;;33.92;23.00
12987;BME280;58897;51.960;5.582;2022-08-11T11:41:01;101805.31;;;33.78;22.99
12987;BME280;58897;51.960;5.582;2022-08-11T11:43:46;101810.00;;;34.82;23.27
12987;BME280;58897;51.960;5.582;2022-08-11T11:46:13;101806.88;;;34.84;23.40
12987;BME280;58897;51.960;5.582;2022-08-11T11:48:40;101807.69;;;35.26;22.50
12987;BME280;58897;51.960;5.582;2022-08-11T11:51:07;101812.47;;;35.07;22.04
12987;BME280;58897;51.960;5.582;2022-08-11T11:53:35;101800.66;;;34.68;22.36
12987;BME280;58897;51.960;5.582;2022-08-11T11:56:01;101799.00;;;35.42;21.86
12987;BME280;58897;51.960;5.582;2022-08-11T11:58:28;101794.53;;;35.41;22.51
12987;BME280;58897;51.960;5.582;2022-08-11T12:01:13;101787.34;;;35.16;23.00
12987;BME280;58897;51.960;5.582;2022-08-11T12:03:46;101789.31;;;35.15;21.91
12987;BME280;58897;51.960;5.582;2022-08-11T12:06:16;101789.13;;;35.44;22.53
12987;BME280;58897;51.960;5.582;2022-08-11T12:08:43;101787.22;;;35.58;21.73
12987;BME280;58897;51.960;5.582;2022-08-11T12:11:14;101783.34;;;35.22;22.00
12987;BME280;58897;51.960;5.582;2022-08-11T12:14:03;101771.66;;;34.54;21.90
12987;BME280;58897;51.960;5.582;2022-08-11T12:16:38;101778.53;;;34.66;21.61
12987;BME280;58897;51.960;5.582;2022-08-11T12:19:10;101775.13;;;35.07;22.00
12987;BME280;58897;51.960;5.582;2022-08-11T12:21:38;101762.47;;;34.91;22.51
12987;BME280;58897;51.960;5.582;2022-08-11T12:24:27;101771.00;;;34.99;23.01
12987;BME280;58897;51.960;5.582;2022-08-11T12:27:13;101769.25;;;34.66;22.45
12987;BME280;58897;51.960;5.582;2022-08-11T12:29:56;101770.59;;;34.02;22.83
12987;BME280;58897;51.960;5.582;2022-08-11T12:32:26;101769.97;;;35.14;21.87
12987;BME280;58897;51.960;5.582;2022-08-11T12:34:54;101758.81;;;35.41;21.73
12987;BME280;58897;51.960;5.582;2022-08-11T12:37:26;101749.69;;;34.61;21.68
12987;BME280;58897;51.960;5.582;2022-08-11T12:40:03;101753.13;;;34.95;21.01
12987;BME280;58897;51.960;5.582;2022-08-11T12:43:15;101745.28;;;34.31;22.17
12987;BME280;58897;51.960;5.582;2022-08-11T12:46:13;101752.94;;;34.87;21.50
12987;BME280;58897;51.960;5.582;2022-08-11T12:48:44;101743.16;;;34.84;21.65
12987;BME280;58897;51.960;5.582;2022-08-11T12:51:37;101731.44;;;33.92;21.27
12987;BME280;58897;51.960;5.582;2022-08-11T12:54:57;101732.50;;;34.25;22.02
12987;BME280;58897;51.960;5.582;2022-08-11T12:57:38;101727.09;;;34.05;21.39
12987;BME280;58897;51.960;5.582;2022-08-11T13:00:24;101718.38;;;34.72;20.88
12987;BME280;58897;51.960;5.582;2022-08-11T13:03:12;101723.63;;;34.18;21.37
12987;BME280;58897;51.960;5.582;2022-08-11T13:06:00;101718.75;;;34.66;21.24
12987;BME280;58897;51.960;5.582;2022-08-11T13:08:30;101723.47;;;34.28;20.63
12987;BME280;58897;51.960;5.582;2022-08-11T13:10:59;101717.53;;;33.25;21.59
12987;BME280;58897;51.960;5.582;2022-08-11T13:13:46;101717.91;;;33.47;21.97
12987;BME280;58897;51.960;5.582;2022-08-11T13:16:24;101710.28;;;34.05;22.24
12987;BME280;58897;51.960;5.582;2022-08-11T13:18:51;101709.44;;;34.04;21.58
12987;BME280;58897;51.960;5.582;2022-08-11T13:21:20;101702.47;;;34.02;21.85
12987;BME280;58897;51.960;5.582;2022-08-11T13:23:52;101702.13;;;34.08;21.75
12987;BME280;58897;51.960;5.582;2022-08-11T13:26:30;101706.34;;;33.53;21.79
12987;BME280;58897;51.960;5.582;2022-08-11T13:29:16;101691.97;;;33.89;22.01
12987;BME280;58897;51.960;5.582;2022-08-11T13:31:44;101694.00;;;33.54;22.95
12987;BME280;58897;51.960;5.582;2022-08-11T13:34:11;101679.03;;;33.69;22.84
12987;BME280;58897;51.960;5.582;2022-08-11T13:36:37;101679.59;;;33.71;23.21
12987;BME280;58897;51.960;5.582;2022-08-11T13:39:04;101688.41;;;32.92;22.91
12987;BME280;58897;51.960;5.582;2022-08-11T13:41:31;101680.09;;;32.82;23.04
12987;BME280;58897;51.960;5.582;2022-08-11T13:44:09;101680.84;;;33.55;23.33
12987;BME280;58897;51.960;5.582;2022-08-11T13:46:38;101681.06;;;33.87;22.70
12987;BME280;58897;51.960;5.582;2022-08-11T13:49:06;101675.31;;;33.97;22.36
12987;BME280;58897;51.960;5.582;2022-08-11T13:51:36;101679.03;;;33.69;23.27
12987;BME280;58897;51.960;5.582;2022-08-11T13:54:16;101673.03;;;33.52;23.10
12987;BME280;58897;51.960;5.582;2022-08-11T13:56:47;101670.63;;;33.69;22.91
12987;BME280;58897;51.960;5.582;2022-08-11T13:59:17;101669.13;;;33.77;22.97
12987;BME280;58897;51.960;5.582;2022-08-11T14:01:54;101670.81;;;33.49;21.96
12987;BME280;58897;51.960;5.582;2022-08-11T14:07:19;101662.75;;;32.80;22.55
12987;BME280;58897;51.960;5.582;2022-08-11T14:09:53;101664.06;;;32.54;22.95
12987;BME280;58897;51.960;5.582;2022-08-11T14:12:24;101660.38;;;32.97;22.72
12987;BME280;58897;51.960;5.582;2022-08-11T14:15:21;101651.41;;;33.00;22.20
12987;BME280;58897;51.960;5.582;2022-08-11T14:17:57;101649.66;;;32.70;22.76
12987;BME280;58897;51.960;5.582;2022-08-11T14:20:28;101656.88;;;33.15;23.47
12987;BME280;58897;51.960;5.582;2022-08-11T14:23:16;101647.00;;;33.23;23.20
12987;BME280;58897;51.960;5.582;2022-08-11T14:25:44;101654.19;;;33.00;22.40
12987;BME280;58897;51.960;5.582;2022-08-11T14:28:33;101643.88;;;32.95;21.71
12987;BME280;58897;51.960;5.582;2022-08-11T14:31:09;101642.19;;;32.61;22.06
12987;BME280;58897;51.960;5.582;2022-08-11T14:33:36;101639.53;;;32.79;22.39
12987;BME280;58897;51.960;5.582;2022-08-11T14:36:24;101640.03;;;32.86;23.27
12987;BME280;58897;51.960;5.582;2022-08-11T14:38:53;101632.84;;;32.75;21.95
12987;BME280;58897;51.960;5.582;2022-08-11T14:41:21;101637.50;;;32.56;21.22
12987;BME280;58897;51.960;5.582;2022-08-11T14:44:27;101635.81;;;32.55;22.46
12987;BME280;58897;51.960;5.582;2022-08-11T14:47:16;101635.25;;;32.04;23.10
12987;BME280;58897;51.960;5.582;2022-08-11T14:49:52;101627.13;;;31.98;22.87
12987;BME280;58897;51.960;5.582;2022-08-11T14:52:38;101627.94;;;32.13;23.27
12987;BME280;58897;51.960;5.582;2022-08-11T14:55:09;101623.19;;;32.14;23.84
12987;BME280;58897;51.960;5.582;2022-08-11T14:57:56;101617.94;;;31.92;22.79
12987;BME280;58897;51.960;5.582;2022-08-11T15:00:23;101624.16;;;31.79;22.84
12987;BME280;58897;51.960;5.582;2022-08-11T15:02:50;101615.97;;;31.98;23.35
12987;BME280;58897;51.960;5.582;2022-08-11T15:05:45;101617.25;;;32.20;22.64
12987;BME280;58897;51.960;5.582;2022-08-11T15:08:25;101612.25;;;32.17;23.07
12987;BME280;58897;51.960;5.582;2022-08-11T15:11:13;101612.63;;;31.96;23.43
12987;BME280;58897;51.960;5.582;2022-08-11T15:14:00;101610.09;;;31.99;22.90
12987;BME280;58897;51.960;5.582;2022-08-11T15:16:28;101616.59;;;31.80;22.86
12987;BME280;58897;51.960;5.582;2022-08-11T15:19:13;101610.78;;;31.71;23.77
12987;BME280;58897;51.960;5.582;2022-08-11T15:21:41;101598.75;;;31.70;24.12
12987;BME280;58897;51.960;5.582;2022-08-11T15:24:28;101600.50;;;31.56;23.55
12987;BME280;58897;51.960;5.582;2022-08-11T15:26:57;101592.44;;;31.35;23.98
12987;BME280;58897;51.960;5.582;2022-08-11T15:29:45;101589.09;;;31.28;23.57
12987;BME280;58897;51.960;5.582;2022-08-11T15:32:32;101595.50;;;31.38;24.30
12987;BME280;58897;51.960;5.582;2022-08-11T15:35:19;101597.47;;;31.38;25.12
12987;BME280;58897;51.960;5.582;2022-08-11T15:38:05;101591.63;;;31.19;23.85
12987;BME280;58897;51.960;5.582;2022-08-11T15:40:38;101573.22;;;31.08;24.39
12987;BME280;58897;51.960;5.582;2022-08-11T15:43:30;101580.50;;;31.09;24.87
12987;BME280;58897;51.960;5.582;2022-08-11T15:46:42;101584.97;;;31.05;24.48
12987;BME280;58897;51.960;5.582;2022-08-11T15:49:28;101574.63;;;31.00;24.75
12987;BME280;58897;51.960;5.582;2022-08-11T15:52:20;101583.59;;;31.07;25.26
12987;BME280;58897;51.960;5.582;2022-08-11T15:54:48;101579.09;;;31.06;25.27
12987;BME280;58897;51.960;5.582;2022-08-11T15:57:16;101578.28;;;31.01;26.12
12987;BME280;58897;51.960;5.582;2022-08-11T16:00:06;101579.09;;;30.86;27.04
12987;BME280;58897;51.960;5.582;2022-08-11T16:02:52;101572.97;;;30.89;27.42
12987;BME280;58897;51.960;5.582;2022-08-11T16:05:23;101578.56;;;30.84;25.51
12987;BME280;58897;51.960;5.582;2022-08-11T16:08:12;101579.66;;;30.73;24.75
12987;BME280;58897;51.960;5.582;2022-08-11T16:10:41;101571.00;;;30.75;25.97
12987;BME280;58897;51.960;5.582;2022-08-11T16:13:11;101576.34;;;30.71;24.65
12987;BME280;58897;51.960;5.582;2022-08-11T16:15:46;101567.69;;;30.68;25.14
12987;BME280;58897;51.960;5.582;2022-08-11T16:18:42;101562.38;;;30.66;24.58
12987;BME280;58897;51.960;5.582;2022-08-11T16:21:16;101567.13;;;30.55;25.50
12987;BME280;58897;51.960;5.582;2022-08-11T16:24:03;101567.41;;;30.49;25.60
12987;BME280;58897;51.960;5.582;2022-08-11T16:26:31;101563.22;;;30.56;24.80
12987;BME280;58897;51.960;5.582;2022-08-11T16:29:22;101561.81;;;30.44;25.31
12987;BME280;58897;51.960;5.582;2022-08-11T16:31:50;101549.28;;;30.36;26.78
12987;BME280;58897;51.960;5.582;2022-08-11T16:34:36;101559.84;;;30.34;27.33